AXM6224 WMKK-WMKN
Flight info
| Callsign | AXM6224 |
|---|---|
| Flight time | 0h 33m |
| Altitude | 23000 |
| Route | PIBOS2F PIBOS R208 GUNBO GUNBO1E |
| Aircraft | A20N/M-SDE2E3FGHIRWXY/LB1 |
Departure
| Time | 2026-04-16 10:25 |
|---|---|
| Airport | Kuala Lumpur International Airport (WMKK) |
Arrival
| Time | 2026-04-16 10:58 |
|---|---|
| Airport | Sultan Mahmud Airport (WMKN) |
| Time | Latitude | Longitude | Altitude | Speed | Heading |
|---|---|---|---|---|---|
| 2026-04-16 09:56 | 2.74109 | 101.68368 | 42 ft | 0 kts | 146° |
| 2026-04-16 10:13 | 2.74113 | 101.68366 | 42 ft | 2 kts | 147° |
| 2026-04-16 10:13 | 2.74130 | 101.68356 | 42 ft | 3 kts | 165° |
| 2026-04-16 10:13 | 2.74147 | 101.68354 | 41 ft | 3 kts | 194° |
| 2026-04-16 10:13 | 2.74162 | 101.68361 | 42 ft | 2 kts | 233° |
| 2026-04-16 10:14 | 2.74164 | 101.68363 | 37 ft | 0 kts | 236° |
| 2026-04-16 10:16 | 2.74162 | 101.68361 | 42 ft | 1 kts | 236° |
| 2026-04-16 10:17 | 2.74155 | 101.68350 | 42 ft | 3 kts | 236° |
| 2026-04-16 10:17 | 2.74127 | 101.68308 | 42 ft | 10 kts | 236° |
| 2026-04-16 10:17 | 2.74093 | 101.68257 | 42 ft | 11 kts | 235° |
| 2026-04-16 10:17 | 2.74048 | 101.68191 | 42 ft | 12 kts | 237° |
| 2026-04-16 10:18 | 2.74004 | 101.68126 | 42 ft | 7 kts | 236° |
| 2026-04-16 10:18 | 2.73973 | 101.68080 | 41 ft | 9 kts | 236° |
| 2026-04-16 10:18 | 2.73936 | 101.68031 | 40 ft | 7 kts | 211° |
| 2026-04-16 10:18 | 2.73881 | 101.68047 | 40 ft | 12 kts | 148° |
| 2026-04-16 10:19 | 2.73795 | 101.68104 | 40 ft | 18 kts | 146° |
| 2026-04-16 10:19 | 2.73691 | 101.68173 | 40 ft | 18 kts | 146° |
| 2026-04-16 10:19 | 2.73573 | 101.68254 | 39 ft | 23 kts | 146° |
| 2026-04-16 10:19 | 2.73474 | 101.68318 | 40 ft | 12 kts | 147° |
| 2026-04-16 10:20 | 2.73390 | 101.68374 | 40 ft | 15 kts | 144° |
| 2026-04-16 10:20 | 2.73305 | 101.68433 | 40 ft | 15 kts | 146° |
| 2026-04-16 10:20 | 2.73203 | 101.68502 | 40 ft | 18 kts | 147° |
| 2026-04-16 10:20 | 2.73111 | 101.68563 | 40 ft | 16 kts | 146° |
| 2026-04-16 10:21 | 2.73004 | 101.68635 | 40 ft | 21 kts | 146° |
| 2026-04-16 10:21 | 2.72872 | 101.68724 | 40 ft | 24 kts | 146° |
| 2026-04-16 10:21 | 2.72719 | 101.68827 | 38 ft | 29 kts | 144° |
| 2026-04-16 10:21 | 2.72596 | 101.68911 | 39 ft | 15 kts | 146° |
| 2026-04-16 10:22 | 2.72492 | 101.68981 | 38 ft | 21 kts | 146° |
| 2026-04-16 10:22 | 2.72360 | 101.69069 | 38 ft | 24 kts | 146° |
| 2026-04-16 10:22 | 2.72245 | 101.69146 | 39 ft | 15 kts | 145° |
| 2026-04-16 10:22 | 2.72140 | 101.69218 | 40 ft | 21 kts | 146° |
| 2026-04-16 10:23 | 2.72003 | 101.69311 | 38 ft | 25 kts | 145° |
| 2026-04-16 10:23 | 2.71896 | 101.69382 | 40 ft | 14 kts | 147° |
| 2026-04-16 10:23 | 2.71803 | 101.69364 | 40 ft | 18 kts | 236° |
| 2026-04-16 10:23 | 2.71754 | 101.69285 | 39 ft | 0 kts | 247° |
| 2026-04-16 10:24 | 2.71751 | 101.69273 | 39 ft | 7 kts | 257° |
| 2026-04-16 10:24 | 2.71788 | 101.69168 | 39 ft | 27 kts | 296° |
| 2026-04-16 10:25 | 2.71993 | 101.68977 | 39 ft | 78 kts | 326° |
| 2026-04-16 10:25 | 2.72757 | 101.68464 | 40 ft | 179 kts | 326° |
| 2026-04-16 10:25 | 2.73829 | 101.67728 | 864 ft | 198 kts | 325° |
| 2026-04-16 10:25 | 2.74471 | 101.67280 | 1457 ft | 210 kts | 324° |
| 2026-04-16 10:26 | 2.75721 | 101.66379 | 2545 ft | 228 kts | 324° |
| 2026-04-16 10:26 | 2.77040 | 101.65407 | 3637 ft | 245 kts | 329° |
| 2026-04-16 10:26 | 2.78711 | 101.64862 | 4652 ft | 264 kts | 358° |
| 2026-04-16 10:26 | 2.80533 | 101.65189 | 5831 ft | 272 kts | 25° |
| 2026-04-16 10:27 | 2.81348 | 101.65673 | 6473 ft | 274 kts | 38° |
| 2026-04-16 10:27 | 2.82747 | 101.67007 | 7704 ft | 281 kts | 47° |
| 2026-04-16 10:27 | 2.84116 | 101.68426 | 8961 ft | 287 kts | 45° |
| 2026-04-16 10:27 | 2.85607 | 101.69794 | 10145 ft | 293 kts | 41° |
| 2026-04-16 10:28 | 2.87238 | 101.71118 | 10963 ft | 314 kts | 38° |
| 2026-04-16 10:28 | 2.89064 | 101.72481 | 11529 ft | 340 kts | 37° |
| 2026-04-16 10:28 | 2.91034 | 101.73892 | 12315 ft | 353 kts | 36° |
| 2026-04-16 10:28 | 2.93024 | 101.75301 | 13379 ft | 358 kts | 36° |
| 2026-04-16 10:29 | 2.95073 | 101.76754 | 14325 ft | 363 kts | 36° |
| 2026-04-16 10:29 | 2.97146 | 101.78230 | 15230 ft | 369 kts | 36° |
| 2026-04-16 10:29 | 2.99253 | 101.79733 | 16130 ft | 374 kts | 36° |
| 2026-04-16 10:29 | 3.01387 | 101.81258 | 17005 ft | 380 kts | 36° |
| 2026-04-16 10:30 | 3.03551 | 101.82807 | 17834 ft | 386 kts | 36° |
| 2026-04-16 10:30 | 3.05751 | 101.84381 | 18595 ft | 391 kts | 36° |
| 2026-04-16 10:30 | 3.07977 | 101.85973 | 19329 ft | 396 kts | 36° |
| 2026-04-16 10:30 | 3.10229 | 101.87584 | 20040 ft | 401 kts | 36° |
| 2026-04-16 10:31 | 3.12513 | 101.89218 | 20755 ft | 406 kts | 36° |
| 2026-04-16 10:31 | 3.14826 | 101.90873 | 21452 ft | 411 kts | 36° |
| 2026-04-16 10:31 | 3.17173 | 101.92552 | 22162 ft | 416 kts | 36° |
| 2026-04-16 10:31 | 3.19512 | 101.94226 | 22645 ft | 421 kts | 36° |
| 2026-04-16 10:32 | 3.21934 | 101.95959 | 22798 ft | 422 kts | 36° |
| 2026-04-16 10:32 | 3.24288 | 101.97644 | 22816 ft | 423 kts | 36° |
| 2026-04-16 10:32 | 3.26685 | 101.99360 | 22824 ft | 422 kts | 36° |
| 2026-04-16 10:32 | 3.29073 | 102.01070 | 22819 ft | 422 kts | 36° |
| 2026-04-16 10:33 | 3.31462 | 102.02780 | 22822 ft | 422 kts | 36° |
| 2026-04-16 10:33 | 3.33850 | 102.04491 | 22822 ft | 422 kts | 36° |
| 2026-04-16 10:33 | 3.36299 | 102.06104 | 22820 ft | 422 kts | 30° |
| 2026-04-16 10:33 | 3.38844 | 102.07565 | 22822 ft | 422 kts | 30° |
| 2026-04-16 10:34 | 3.41390 | 102.09034 | 22823 ft | 422 kts | 30° |
| 2026-04-16 10:34 | 3.43931 | 102.10505 | 22819 ft | 422 kts | 30° |
| 2026-04-16 10:34 | 3.46511 | 102.11916 | 22817 ft | 422 kts | 27° |
| 2026-04-16 10:34 | 3.49131 | 102.13241 | 22815 ft | 422 kts | 27° |
| 2026-04-16 10:35 | 3.51763 | 102.14551 | 22820 ft | 422 kts | 27° |
| 2026-04-16 10:35 | 3.54344 | 102.15845 | 22820 ft | 422 kts | 27° |
| 2026-04-16 10:35 | 3.57009 | 102.17194 | 22816 ft | 422 kts | 27° |
| 2026-04-16 10:35 | 3.59625 | 102.18526 | 22816 ft | 422 kts | 27° |
| 2026-04-16 10:36 | 3.62237 | 102.19862 | 22814 ft | 422 kts | 27° |
| 2026-04-16 10:36 | 3.64846 | 102.21198 | 22811 ft | 421 kts | 27° |
| 2026-04-16 10:36 | 3.67457 | 102.22536 | 22809 ft | 422 kts | 27° |
| 2026-04-16 10:36 | 3.70070 | 102.23874 | 22808 ft | 422 kts | 27° |
| 2026-04-16 10:37 | 3.72681 | 102.25212 | 22813 ft | 422 kts | 27° |
| 2026-04-16 10:37 | 3.75290 | 102.26548 | 22809 ft | 421 kts | 27° |
| 2026-04-16 10:37 | 3.77900 | 102.27885 | 22811 ft | 421 kts | 27° |
| 2026-04-16 10:37 | 3.80475 | 102.29204 | 22809 ft | 421 kts | 27° |
| 2026-04-16 10:38 | 3.83086 | 102.30542 | 22810 ft | 421 kts | 27° |
| 2026-04-16 10:38 | 3.85689 | 102.31876 | 22809 ft | 420 kts | 27° |
| 2026-04-16 10:38 | 3.88302 | 102.33215 | 22809 ft | 421 kts | 27° |
| 2026-04-16 10:38 | 3.90906 | 102.34549 | 22807 ft | 420 kts | 27° |
| 2026-04-16 10:39 | 3.93509 | 102.35883 | 22812 ft | 420 kts | 27° |
| 2026-04-16 10:39 | 3.96110 | 102.37215 | 22813 ft | 420 kts | 27° |
| 2026-04-16 10:39 | 3.98709 | 102.38547 | 22812 ft | 420 kts | 27° |
| 2026-04-16 10:39 | 4.01313 | 102.39882 | 22815 ft | 419 kts | 27° |
| 2026-04-16 10:40 | 4.03909 | 102.41213 | 22812 ft | 419 kts | 27° |
| 2026-04-16 10:40 | 4.06505 | 102.42543 | 22813 ft | 419 kts | 27° |
| 2026-04-16 10:40 | 4.09102 | 102.43875 | 22810 ft | 419 kts | 27° |
| 2026-04-16 10:40 | 4.11672 | 102.45192 | 22817 ft | 419 kts | 27° |
| 2026-04-16 10:41 | 4.14262 | 102.46520 | 22815 ft | 418 kts | 27° |
| 2026-04-16 10:41 | 4.16856 | 102.47850 | 22817 ft | 418 kts | 27° |
| 2026-04-16 10:41 | 4.19447 | 102.49179 | 22817 ft | 418 kts | 27° |
| 2026-04-16 10:41 | 4.22040 | 102.50509 | 22821 ft | 418 kts | 27° |
| 2026-04-16 10:42 | 4.24635 | 102.51840 | 22824 ft | 418 kts | 27° |
| 2026-04-16 10:42 | 4.27226 | 102.53168 | 22821 ft | 418 kts | 27° |
| 2026-04-16 10:42 | 4.29820 | 102.54499 | 22825 ft | 419 kts | 27° |
| 2026-04-16 10:42 | 4.32418 | 102.55832 | 22777 ft | 419 kts | 27° |
| 2026-04-16 10:43 | 4.34975 | 102.57143 | 22543 ft | 417 kts | 27° |
| 2026-04-16 10:43 | 4.37551 | 102.58465 | 22294 ft | 415 kts | 27° |
| 2026-04-16 10:43 | 4.40116 | 102.59781 | 22020 ft | 413 kts | 27° |
| 2026-04-16 10:43 | 4.42674 | 102.61094 | 21342 ft | 415 kts | 27° |
| 2026-04-16 10:44 | 4.45242 | 102.62412 | 20654 ft | 412 kts | 27° |
| 2026-04-16 10:44 | 4.47780 | 102.63714 | 19943 ft | 407 kts | 27° |
| 2026-04-16 10:44 | 4.50286 | 102.65001 | 19242 ft | 401 kts | 27° |
| 2026-04-16 10:44 | 4.52768 | 102.66275 | 18537 ft | 396 kts | 27° |
| 2026-04-16 10:45 | 4.55210 | 102.67528 | 17830 ft | 391 kts | 27° |
| 2026-04-16 10:45 | 4.57588 | 102.68749 | 17148 ft | 385 kts | 27° |
| 2026-04-16 10:45 | 4.59950 | 102.69961 | 16475 ft | 378 kts | 27° |
| 2026-04-16 10:45 | 4.62285 | 102.71144 | 15802 ft | 374 kts | 27° |
| 2026-04-16 10:46 | 4.64632 | 102.72303 | 15123 ft | 370 kts | 26° |
| 2026-04-16 10:46 | 4.66895 | 102.73414 | 14477 ft | 366 kts | 26° |
| 2026-04-16 10:46 | 4.69164 | 102.74530 | 13837 ft | 362 kts | 27° |
| 2026-04-16 10:46 | 4.71412 | 102.75638 | 13159 ft | 358 kts | 27° |
| 2026-04-16 10:47 | 4.73623 | 102.76732 | 12561 ft | 352 kts | 27° |
| 2026-04-16 10:47 | 4.75801 | 102.77810 | 11956 ft | 347 kts | 27° |
| 2026-04-16 10:47 | 4.77952 | 102.78876 | 11342 ft | 343 kts | 27° |
| 2026-04-16 10:47 | 4.80088 | 102.79934 | 10925 ft | 345 kts | 27° |
| 2026-04-16 10:48 | 4.82253 | 102.81007 | 10460 ft | 347 kts | 26° |
| 2026-04-16 10:48 | 4.84382 | 102.82061 | 10208 ft | 334 kts | 26° |
| 2026-04-16 10:48 | 4.86431 | 102.83033 | 10062 ft | 318 kts | 22° |
| 2026-04-16 10:48 | 4.88482 | 102.83685 | 9894 ft | 303 kts | 14° |
| 2026-04-16 10:49 | 4.90515 | 102.84191 | 9462 ft | 299 kts | 14° |
| 2026-04-16 10:49 | 4.92519 | 102.84697 | 9020 ft | 295 kts | 14° |
| 2026-04-16 10:49 | 4.94496 | 102.85198 | 8588 ft | 291 kts | 14° |
| 2026-04-16 10:49 | 4.96455 | 102.85697 | 8160 ft | 288 kts | 14° |
| 2026-04-16 10:50 | 4.98390 | 102.86189 | 7739 ft | 286 kts | 14° |
| 2026-04-16 10:50 | 5.00313 | 102.86679 | 7300 ft | 284 kts | 14° |
| 2026-04-16 10:50 | 5.01828 | 102.87064 | 6964 ft | 283 kts | 14° |
| 2026-04-16 10:50 | 5.03730 | 102.87548 | 6536 ft | 282 kts | 13° |
| 2026-04-16 10:51 | 5.05633 | 102.88033 | 6106 ft | 281 kts | 13° |
| 2026-04-16 10:51 | 5.07521 | 102.88511 | 5716 ft | 278 kts | 13° |
| 2026-04-16 10:51 | 5.09417 | 102.88900 | 5502 ft | 281 kts | 10° |
| 2026-04-16 10:51 | 5.11332 | 102.89267 | 5117 ft | 280 kts | 11° |
| 2026-04-16 10:52 | 5.13242 | 102.89633 | 4508 ft | 279 kts | 11° |
| 2026-04-16 10:52 | 5.15090 | 102.89987 | 4160 ft | 268 kts | 11° |
| 2026-04-16 10:52 | 5.16871 | 102.90331 | 4047 ft | 252 kts | 13° |
| 2026-04-16 10:52 | 5.18445 | 102.90961 | 3962 ft | 239 kts | 34° |
| 2026-04-16 10:53 | 5.19657 | 102.92035 | 3883 ft | 227 kts | 46° |
| 2026-04-16 10:53 | 5.20750 | 102.93133 | 3806 ft | 218 kts | 46° |
| 2026-04-16 10:53 | 5.21805 | 102.94180 | 3742 ft | 209 kts | 46° |
| 2026-04-16 10:53 | 5.22854 | 102.95158 | 3667 ft | 202 kts | 43° |
| 2026-04-16 10:54 | 5.23869 | 102.96125 | 3471 ft | 202 kts | 46° |
| 2026-04-16 10:54 | 5.24538 | 102.96786 | 3298 ft | 204 kts | 46° |
| 2026-04-16 10:54 | 5.25907 | 102.98134 | 2951 ft | 208 kts | 46° |
| 2026-04-16 10:54 | 5.26594 | 102.98812 | 2763 ft | 209 kts | 46° |
| 2026-04-16 10:55 | 5.27637 | 102.99841 | 2497 ft | 210 kts | 46° |
| 2026-04-16 10:55 | 5.28676 | 103.00866 | 2223 ft | 209 kts | 46° |
| 2026-04-16 10:55 | 5.29714 | 103.01890 | 1973 ft | 206 kts | 46° |
| 2026-04-16 10:55 | 5.30696 | 103.02858 | 1704 ft | 192 kts | 47° |
| 2026-04-16 10:56 | 5.31609 | 103.03759 | 1455 ft | 176 kts | 47° |
| 2026-04-16 10:56 | 5.32456 | 103.04594 | 1236 ft | 166 kts | 48° |
| 2026-04-16 10:56 | 5.33262 | 103.05391 | 1018 ft | 159 kts | 47° |
| 2026-04-16 10:56 | 5.33884 | 103.06005 | 873 ft | 151 kts | 46° |
| 2026-04-16 10:57 | 5.34390 | 103.06501 | 754 ft | 135 kts | 45° |
| 2026-04-16 10:57 | 5.35023 | 103.07128 | 604 ft | 127 kts | 45° |
| 2026-04-16 10:57 | 5.35656 | 103.07752 | 439 ft | 128 kts | 44° |
| 2026-04-16 10:57 | 5.36278 | 103.08373 | 250 ft | 124 kts | 43° |
| 2026-04-16 10:58 | 5.36889 | 103.08982 | 125 ft | 124 kts | 42° |
| 2026-04-16 10:58 | 5.37488 | 103.09585 | 39 ft | 116 kts | 43° |
| 2026-04-16 10:58 | 5.37928 | 103.10001 | 28 ft | 65 kts | 41° |
| 2026-04-16 10:58 | 5.38068 | 103.10144 | 28 ft | 17 kts | 56° |
| 2026-04-16 10:59 | 5.38054 | 103.10224 | 28 ft | 6 kts | 136° |
| 2026-04-16 10:59 | 5.38043 | 103.10235 | 27 ft | 0 kts | 135° |
| 2026-04-16 10:59 | 5.38026 | 103.10251 | 27 ft | 7 kts | 135° |
| 2026-04-16 10:59 | 5.38002 | 103.10282 | 28 ft | 8 kts | 116° |
| 2026-04-16 11:00 | 5.37968 | 103.10330 | 6 ft | 9 kts | 138° |
| 2026-04-16 11:00 | 5.37934 | 103.10367 | 25 ft | 6 kts | 134° |
| 2026-04-16 11:00 | 5.37908 | 103.10392 | 27 ft | 2 kts | 135° |
| 2026-04-16 11:00 | 5.37899 | 103.10401 | 28 ft | 0 kts | 135° |